Log in Register

Login to your account

Username *
Password *
Remember Me

Create an account

Fields marked with an asterisk (*) are required.
Name *
Username *
Password *
Verify password *
Email *
Verify email *

Nous contacter

 Téléphone : +33 (0)4 79 54 41 81

Coordonnées détaillées et accès : cliquez ici

 
LFLB °C
    Ferienhaus Ostsee
[source: ADDS]
METAR
LFLB 292100Z AUTO 36007KT 330V030 9999 FEW044 OVC052 02/M03 Q1021 =
TAF LFLB 291400Z 2915/3015 34006KT 9999 BKN035 BECMG 2918/2921 VRB02KT BECMG 2922/3002 SCT035 PROB40 TEMPO 3003/3007 3000 BR
TAF
TAF LFLB 291400Z 2915/3015 34006KT 9999 BKN035 BECMG 2918/2921 VRB02KT BECMG 2922/3002 SCT035 PROB40 TEMPO 3003/3007 3000 BR =
SR / SS: 06:54 / 15:55 UTC (Lever/Coucher du soleil le 2021-11-29)
JSN Boot template designed by JoomlaShine.com